createdAt,value
2017-08-20T07:49:19.523Z,17.95
2017-08-20T07:51:21.918Z,17.94
2017-08-20T07:53:23.761Z,17.94
2017-08-20T07:55:25.455Z,18.02
2017-08-20T07:57:27.201Z,18.07
2017-08-20T07:59:28.860Z,18.02
2017-08-20T08:01:30.717Z,18.00
2017-08-20T08:03:32.594Z,18.02
2017-08-20T08:05:34.379Z,18.03
2017-08-20T08:08:16.469Z,18.13
2017-08-20T08:10:17.926Z,18.19
2017-08-20T08:12:19.804Z,18.27
2017-08-20T08:14:22.150Z,18.36
2017-08-20T08:16:23.742Z,18.49
2017-08-20T08:18:25.264Z,18.49
2017-08-20T08:20:27.162Z,18.61
2017-08-20T08:22:29.037Z,18.67
2017-08-20T08:24:30.824Z,18.86
2017-08-20T08:26:32.682Z,18.92
2017-08-20T08:28:34.524Z,18.95
2017-08-20T08:30:36.363Z,19.06
2017-08-20T08:32:38.176Z,19.13
2017-08-20T08:34:40.086Z,19.33
2017-08-20T08:36:41.734Z,19.38
2017-08-20T08:38:43.278Z,19.46
2017-08-20T08:40:44.893Z,19.36
2017-08-20T08:42:46.513Z,19.39
2017-08-20T08:44:48.051Z,19.38
2017-08-20T08:46:49.627Z,19.28
2017-08-20T08:48:51.150Z,19.31
2017-08-20T08:50:52.730Z,19.21
2017-08-20T08:52:54.383Z,19.42
2017-08-20T08:54:56.009Z,19.69
2017-08-20T08:56:57.570Z,19.90
2017-08-20T08:58:59.109Z,20.16
2017-08-20T09:01:00.635Z,20.02
2017-08-20T09:03:43.990Z,20.15
2017-08-20T09:05:45.722Z,20.34
2017-08-20T09:07:47.113Z,20.34
2017-08-20T09:09:48.934Z,20.08
2017-08-20T09:11:50.796Z,19.98
2017-08-20T09:13:52.517Z,19.75
2017-08-20T09:15:54.527Z,19.50
2017-08-20T09:17:56.074Z,19.40
2017-08-20T09:19:57.653Z,19.38
2017-08-20T09:21:59.236Z,19.36
2017-08-20T09:24:00.789Z,19.47
2017-08-20T09:26:02.690Z,19.53
2017-08-20T09:28:04.409Z,19.53
2017-08-20T09:30:06.783Z,19.63
2017-08-20T09:32:08.565Z,19.70
2017-08-20T09:34:10.345Z,19.91
2017-08-20T09:36:12.182Z,20.03
2017-08-20T09:38:13.992Z,20.09
2017-08-20T09:40:15.750Z,19.98
2017-08-20T09:42:17.618Z,20.03
2017-08-20T09:44:19.507Z,20.03
2017-08-20T09:46:21.342Z,19.87
2017-08-20T09:48:23.292Z,19.83
2017-08-20T09:51:05.989Z,19.87
2017-08-20T09:53:07.716Z,20.12
2017-08-20T09:55:10.131Z,20.25
2017-08-20T09:57:11.946Z,20.53
2017-08-20T09:59:13.496Z,20.50
2017-08-20T10:01:15.257Z,20.87
2017-08-20T10:03:17.031Z,20.77
2017-08-20T10:05:18.874Z,20.61
2017-08-20T10:07:20.685Z,20.58
2017-08-20T10:09:22.459Z,20.49
2017-08-20T10:11:24.359Z,20.21
2017-08-20T10:13:26.148Z,20.25
2017-08-20T10:15:28.013Z,20.46
2017-08-20T10:17:29.599Z,20.54
2017-08-20T10:19:31.564Z,20.53
2017-08-20T10:21:33.407Z,20.49
2017-08-20T10:23:35.233Z,20.69
2017-08-20T10:25:37.132Z,20.66
2017-08-20T10:27:38.969Z,20.79
2017-08-20T10:29:41.160Z,20.98
2017-08-20T10:31:43.011Z,20.68
2017-08-20T10:33:45.104Z,20.89
2017-08-20T10:35:46.898Z,21.27
2017-08-20T10:37:48.728Z,21.48
2017-08-20T10:39:50.484Z,21.51
2017-08-20T10:41:52.273Z,21.48
2017-08-20T10:43:54.998Z,21.23
2017-08-20T10:45:56.727Z,21.19
2017-08-20T10:48:43.014Z,20.98
2017-08-20T10:50:44.822Z,20.90
2017-08-20T10:52:46.709Z,20.53
2017-08-20T10:54:48.280Z,20.50
2017-08-20T10:56:49.887Z,20.81
2017-08-20T10:58:51.725Z,21.19
2017-08-20T11:00:53.685Z,21.45
2017-08-20T11:02:55.589Z,21.41
2017-08-20T11:05:38.182Z,21.35
2017-08-20T11:07:40.243Z,21.61
2017-08-20T11:09:41.789Z,21.76
2017-08-20T11:11:43.906Z,22.06
2017-08-20T11:13:45.405Z,22.29
2017-08-20T11:15:47.044Z,22.25
2017-08-20T11:17:48.576Z,21.94
2017-08-20T11:19:50.186Z,21.75
2017-08-20T11:21:51.860Z,21.85
2017-08-20T11:23:53.701Z,22.02
2017-08-20T11:25:55.459Z,21.97
2017-08-20T11:27:57.326Z,22.12
2017-08-20T11:29:59.154Z,21.83
2017-08-20T11:32:00.959Z,21.75
2017-08-20T11:34:02.995Z,21.69
2017-08-20T11:36:46.368Z,21.71
2017-08-20T11:38:48.413Z,21.76
2017-08-20T11:40:49.998Z,21.83
2017-08-20T11:42:51.567Z,21.94
2017-08-20T11:44:53.430Z,21.81
2017-08-20T11:46:55.729Z,21.60
2017-08-20T11:48:57.641Z,21.51
2017-08-20T11:50:59.570Z,21.51
2017-08-20T11:53:01.211Z,21.57
2017-08-20T11:55:02.976Z,21.57
2017-08-20T11:57:04.862Z,21.50
2017-08-20T11:59:06.718Z,21.63
2017-08-20T12:01:08.504Z,21.44
2017-08-20T12:03:10.389Z,21.20
2017-08-20T12:05:12.645Z,21.09
2017-08-20T12:07:14.611Z,21.21
2017-08-20T12:09:16.556Z,21.01
2017-08-20T12:11:18.399Z,20.99
2017-08-20T12:14:01.101Z,20.71
2017-08-20T12:16:02.854Z,20.49
2017-08-20T12:18:04.308Z,20.69
2017-08-20T12:20:05.790Z,20.77
2017-08-20T12:22:07.444Z,20.69
2017-08-20T12:24:08.898Z,20.72
2017-08-20T12:26:51.362Z,20.62
2017-08-20T12:28:52.817Z,20.71
2017-08-20T12:30:54.360Z,20.79
2017-08-20T12:32:55.877Z,20.79
2017-08-20T12:34:58.117Z,20.50
2017-08-20T12:37:00.237Z,20.31
2017-08-20T12:39:43.719Z,20.20
2017-08-20T12:41:45.823Z,20.34
2017-08-20T12:43:47.404Z,20.49
2017-08-20T12:45:48.930Z,20.62
2017-08-20T12:47:50.504Z,20.68
2017-08-20T12:49:52.845Z,20.50
2017-08-20T12:51:54.505Z,20.18
2017-08-20T12:53:56.484Z,20.18
2017-08-20T12:55:58.378Z,20.13
2017-08-20T12:58:00.390Z,19.98
2017-08-20T13:00:02.337Z,20.08
2017-08-20T13:02:04.299Z,20.21
2017-08-20T13:04:06.421Z,20.31
2017-08-20T13:06:07.964Z,20.50
2017-08-20T13:08:09.483Z,20.61
2017-08-20T13:10:12.077Z,20.59
2017-08-20T13:12:13.944Z,20.59
2017-08-20T13:14:15.494Z,20.66
2017-08-20T13:16:17.011Z,20.80
2017-08-20T13:18:18.553Z,20.91
2017-08-20T13:21:00.995Z,20.86
2017-08-20T13:23:02.614Z,21.02
2017-08-20T13:25:04.012Z,20.98
2017-08-20T13:27:05.438Z,20.54
2017-08-20T13:29:06.870Z,20.56
2017-08-20T13:31:08.309Z,20.61
2017-08-20T13:33:09.771Z,20.72
2017-08-20T13:35:11.276Z,20.72
2017-08-20T13:37:12.807Z,20.74
2017-08-20T13:39:55.221Z,20.76
2017-08-20T13:41:56.920Z,20.74
2017-08-20T13:43:58.357Z,20.72
2017-08-20T13:45:59.838Z,20.81
2017-08-20T13:48:01.561Z,20.86
2017-08-20T13:50:03.126Z,20.90
2017-08-20T13:52:04.678Z,20.87
2017-08-20T13:54:06.172Z,20.90
2017-08-20T13:56:07.799Z,20.89
2017-08-20T13:58:50.201Z,20.68
2017-08-20T14:00:51.661Z,20.35
2017-08-20T14:02:53.083Z,20.03
2017-08-20T14:04:55.302Z,19.68
2017-08-20T14:06:56.695Z,19.20
2017-08-20T14:08:58.129Z,19.10
2017-08-20T14:11:39.991Z,19.15
2017-08-20T14:13:42.204Z,19.21
2017-08-20T14:15:43.785Z,19.23
2017-08-20T14:17:45.179Z,19.32
2017-08-20T14:19:46.601Z,19.38
2017-08-20T14:21:48.111Z,19.47
2017-08-20T14:23:49.535Z,19.32
2017-08-20T14:25:51.048Z,19.24
2017-08-20T14:28:34.254Z,19.20
2017-08-20T14:31:18.023Z,19.23
2017-08-20T14:33:20.663Z,19.32
2017-08-20T14:35:22.569Z,19.42
2017-08-20T14:37:24.018Z,19.36
2017-08-20T14:39:25.668Z,19.35
2017-08-20T14:41:27.253Z,19.61
2017-08-20T14:43:29.256Z,19.79
2017-08-20T14:46:11.672Z,19.79
2017-08-20T14:48:13.097Z,19.66
2017-08-20T14:50:16.339Z,19.66
2017-08-20T14:52:17.860Z,19.68
2017-08-20T14:54:19.380Z,19.68
2017-08-20T14:56:20.961Z,19.48
2017-08-20T14:58:22.514Z,19.48
2017-08-20T15:00:24.370Z,19.36
2017-08-20T15:02:25.981Z,19.43
2017-08-20T15:05:08.462Z,19.46
2017-08-20T15:07:10.871Z,19.25
2017-08-20T15:09:12.423Z,19.36
2017-08-20T15:11:13.924Z,19.40
2017-08-20T15:13:15.777Z,19.48
2017-08-20T15:15:17.623Z,19.55
2017-08-20T15:17:19.160Z,19.55
2017-08-20T15:19:20.785Z,19.55
2017-08-20T15:21:22.508Z,19.58
2017-08-20T15:23:24.097Z,19.43
2017-08-20T15:25:25.633Z,19.48
2017-08-20T15:28:07.322Z,19.46
2017-08-20T15:30:08.818Z,19.28
2017-08-20T15:32:10.939Z,19.15
2017-08-20T15:34:12.369Z,19.23
2017-08-20T15:36:13.802Z,19.42
2017-08-20T15:38:15.359Z,19.58
2017-08-20T15:40:17.096Z,19.47
2017-08-20T15:42:18.633Z,19.53
2017-08-20T15:45:00.668Z,19.55
2017-08-20T15:47:02.473Z,19.58
2017-08-20T15:49:04.079Z,19.50
2017-08-20T15:51:06.101Z,19.53
2017-08-20T15:53:07.792Z,19.70
2017-08-20T15:55:09.712Z,19.69
2017-08-20T15:57:11.739Z,19.66
2017-08-20T15:59:54.076Z,19.84
2017-08-20T16:01:55.499Z,19.90
2017-08-20T16:03:56.930Z,19.87
2017-08-20T16:05:58.361Z,19.88
2017-08-20T16:07:59.793Z,19.87
2017-08-20T16:10:01.294Z,19.84
2017-08-20T16:12:02.764Z,19.97
2017-08-20T16:14:04.989Z,19.97
2017-08-20T16:16:49.499Z,20.00
2017-08-20T16:18:52.106Z,20.15
2017-08-20T16:20:53.777Z,19.95
2017-08-20T16:22:55.476Z,19.94
2017-08-20T16:24:58.099Z,19.84
2017-08-20T16:27:00.074Z,19.79
2017-08-20T16:29:44.862Z,19.63
2017-08-20T16:31:46.592Z,19.66
2017-08-20T16:33:48.717Z,19.75
2017-08-20T16:35:50.283Z,19.75
2017-08-20T16:37:51.962Z,19.84
2017-08-20T16:39:53.521Z,19.75
2017-08-20T16:41:55.029Z,19.87
2017-08-20T16:43:56.528Z,19.84
2017-08-20T16:45:58.205Z,19.79
2017-08-20T16:48:00.069Z,19.61
2017-08-20T16:50:01.585Z,19.68
2017-08-20T16:52:03.102Z,19.75
2017-08-20T16:54:04.626Z,19.66
2017-08-20T16:56:06.214Z,19.69
2017-08-20T16:58:07.744Z,19.70
2017-08-20T17:00:09.289Z,19.55
2017-08-20T17:02:10.823Z,19.39
2017-08-20T17:04:12.315Z,19.35
2017-08-20T17:06:13.833Z,19.32
2017-08-20T17:08:15.391Z,19.43
2017-08-20T17:10:16.934Z,19.42
2017-08-20T17:12:18.561Z,19.38
2017-08-20T17:14:20.145Z,19.51
2017-08-20T17:16:21.652Z,19.50
2017-08-20T17:18:23.189Z,19.57
2017-08-20T17:20:24.685Z,19.68
2017-08-20T17:22:26.203Z,19.75
2017-08-20T17:24:27.709Z,19.72
2017-08-20T17:26:29.252Z,19.80
2017-08-20T17:28:30.756Z,19.78
2017-08-20T17:30:32.263Z,19.75
2017-08-20T17:32:33.798Z,19.58
2017-08-20T17:34:35.962Z,19.63
2017-08-20T17:36:37.479Z,19.55
2017-08-20T17:38:39.015Z,19.39
2017-08-20T17:40:40.547Z,19.42
2017-08-20T17:42:42.192Z,19.36
2017-08-20T17:44:43.708Z,19.31
2017-08-20T17:46:45.268Z,19.47
2017-08-20T17:48:46.817Z,19.38
2017-08-20T17:50:48.318Z,19.36
2017-08-20T17:52:49.834Z,19.43
2017-08-20T17:54:51.355Z,19.51
2017-08-20T17:56:52.861Z,19.43
2017-08-20T17:58:54.360Z,19.38
2017-08-20T18:00:56.026Z,19.35
2017-08-20T18:02:57.569Z,19.36
2017-08-20T18:04:59.067Z,19.33
2017-08-20T18:07:00.581Z,19.36
2017-08-20T18:09:02.144Z,19.36
2017-08-20T18:11:03.578Z,19.33
2017-08-20T18:13:05.006Z,19.31
2017-08-20T18:15:06.524Z,19.36
2017-08-20T18:17:07.969Z,19.24
2017-08-20T18:19:09.526Z,19.32
2017-08-20T18:21:11.138Z,19.18
2017-08-20T18:23:12.666Z,19.18
2017-08-20T18:25:14.232Z,19.23
2017-08-20T18:27:15.752Z,19.14
2017-08-20T18:29:17.295Z,19.14
2017-08-20T18:31:18.781Z,19.06
2017-08-20T18:33:20.301Z,19.17
2017-08-20T18:35:21.853Z,19.08
2017-08-20T18:37:23.360Z,19.11
2017-08-20T18:39:24.910Z,19.15
2017-08-20T18:41:26.445Z,19.17
2017-08-20T18:43:27.988Z,18.99
2017-08-20T18:45:29.424Z,19.02
2017-08-20T18:47:31.048Z,19.13
2017-08-20T18:49:32.560Z,19.08
2017-08-20T18:51:34.063Z,19.06
2017-08-20T18:53:35.636Z,19.02
2017-08-20T18:55:37.135Z,19.06
2017-08-20T18:57:38.685Z,18.98
2017-08-20T18:59:40.244Z,18.97
2017-08-20T19:01:41.770Z,18.94
2017-08-20T19:03:43.300Z,18.95
2017-08-20T19:05:44.809Z,18.91
2017-08-20T19:07:46.321Z,18.83
2017-08-20T19:09:47.858Z,18.82
2017-08-20T19:11:49.402Z,18.67
2017-08-20T19:13:50.936Z,18.72
2017-08-20T19:15:52.466Z,18.58
2017-08-20T19:17:53.978Z,18.57
2017-08-20T19:19:55.486Z,18.57
2017-08-20T19:21:57.054Z,18.57
2017-08-20T19:23:58.558Z,18.61
2017-08-20T19:26:00.054Z,18.64
2017-08-20T19:28:01.600Z,18.68
2017-08-20T19:30:03.154Z,18.61
2017-08-20T19:32:04.640Z,18.54
2017-08-20T19:34:06.135Z,18.52
2017-08-20T19:36:07.662Z,18.64
2017-08-20T19:38:09.261Z,18.62
2017-08-20T19:40:10.767Z,18.52
2017-08-20T19:42:12.292Z,18.43
2017-08-20T19:44:13.782Z,18.42
2017-08-20T19:46:15.377Z,18.31
2017-08-20T19:48:16.940Z,18.39
2017-08-20T19:50:18.478Z,18.46
2017-08-20T19:52:20.048Z,18.43
2017-08-20T19:54:21.630Z,18.29
2017-08-20T19:56:23.150Z,18.29
2017-08-20T19:58:24.737Z,18.31
2017-08-20T20:00:26.281Z,18.28
2017-08-20T20:02:27.852Z,18.29
2017-08-20T20:04:29.409Z,18.28
2017-08-20T20:06:30.924Z,18.22
2017-08-20T20:08:32.423Z,18.13
2017-08-20T20:10:33.939Z,18.12
2017-08-20T20:12:35.471Z,18.00
2017-08-20T20:14:37.026Z,17.92
2017-08-20T20:16:38.580Z,18.02
2017-08-20T20:18:40.101Z,17.92
2017-08-20T20:20:41.662Z,17.88
2017-08-20T20:22:43.159Z,17.81
2017-08-20T20:24:44.668Z,17.95
2017-08-20T20:26:46.191Z,17.82
2017-08-20T20:28:47.735Z,17.76
2017-08-20T20:30:49.354Z,17.79
2017-08-20T20:32:50.851Z,17.84
2017-08-20T20:34:52.359Z,17.76
2017-08-20T20:36:53.925Z,17.87
2017-08-20T20:38:55.455Z,17.94
2017-08-20T20:40:56.972Z,17.94
2017-08-20T20:42:58.524Z,17.97
2017-08-20T20:45:00.009Z,17.87
2017-08-20T20:47:01.442Z,17.91
2017-08-20T20:49:02.967Z,17.92
2017-08-20T20:51:04.460Z,17.91
2017-08-20T20:53:06.010Z,17.79
2017-08-20T20:55:07.462Z,17.81
2017-08-20T20:57:09.013Z,17.78
2017-08-20T20:59:10.538Z,17.82
2017-08-20T21:01:12.216Z,17.78
2017-08-20T21:03:13.717Z,17.66
2017-08-20T21:05:15.239Z,17.55
2017-08-20T21:07:16.724Z,17.44
2017-08-20T21:09:18.228Z,17.35
2017-08-20T21:11:19.661Z,17.48
2017-08-20T21:13:21.239Z,17.50
2017-08-20T21:15:22.952Z,17.54
2017-08-20T21:17:24.560Z,17.55
2017-08-20T21:19:26.062Z,17.51
2017-08-20T21:21:27.691Z,17.47
2017-08-20T21:23:36.644Z,17.43
2017-08-20T21:25:38.041Z,17.38
2017-08-20T21:27:39.541Z,17.44
2017-08-20T21:29:41.075Z,17.38
2017-08-20T21:31:42.532Z,17.40
2017-08-20T21:33:47.737Z,17.28
2017-08-20T21:35:52.076Z,17.26
2017-08-20T21:37:53.390Z,17.29
2017-08-20T21:39:54.824Z,17.14
2017-08-20T21:41:56.243Z,17.03
2017-08-20T21:43:57.737Z,17.00
2017-08-20T21:45:59.185Z,17.13
2017-08-20T21:48:00.648Z,17.14
2017-08-20T21:50:02.135Z,17.13
2017-08-20T21:52:03.562Z,17.14
2017-08-20T21:54:04.982Z,17.11
2017-08-20T21:56:06.403Z,17.22
2017-08-20T21:58:07.831Z,17.33
2017-08-20T22:00:09.280Z,17.26
2017-08-20T22:02:17.292Z,17.20
2017-08-20T22:04:59.684Z,17.15
2017-08-20T22:07:01.113Z,16.98
2017-08-20T22:09:10.503Z,16.88
2017-08-20T22:11:12.053Z,16.75
2017-08-20T22:13:18.549Z,16.70
2017-08-20T22:15:19.850Z,16.83
2017-08-20T22:17:21.352Z,16.88
2017-08-20T22:19:23.038Z,16.68
2017-08-20T22:21:24.621Z,16.60
2017-08-20T22:23:26.238Z,16.56
2017-08-20T22:25:27.869Z,16.44
2017-08-20T22:27:29.358Z,16.42
2017-08-20T22:30:12.055Z,16.42
2017-08-20T22:32:13.480Z,16.40
2017-08-20T22:34:14.902Z,16.41
2017-08-20T22:36:16.342Z,16.50
2017-08-20T22:38:17.743Z,16.59
2017-08-20T22:40:19.165Z,16.70
2017-08-20T22:42:27.622Z,16.68
2017-08-20T22:44:33.600Z,16.65
2017-08-20T22:46:34.861Z,16.48
2017-08-20T22:48:36.311Z,16.35
2017-08-20T22:50:37.813Z,16.26
2017-08-20T22:52:39.352Z,16.20
2017-08-20T22:54:47.189Z,16.18
2017-08-20T22:56:48.630Z,16.22
2017-08-20T22:58:50.163Z,16.18
2017-08-20T23:00:51.650Z,16.20
2017-08-20T23:02:53.332Z,16.18
2017-08-20T23:04:55.099Z,16.14
2017-08-20T23:07:00.809Z,15.97
2017-08-20T23:09:43.116Z,15.92
2017-08-20T23:11:45.380Z,15.97
2017-08-20T23:13:46.806Z,15.86
2017-08-20T23:15:48.298Z,15.88
2017-08-20T23:17:49.805Z,15.99
2017-08-20T23:19:51.464Z,16.14
2017-08-20T23:21:53.159Z,16.15
2017-08-20T23:23:54.711Z,16.27
2017-08-20T23:26:36.696Z,16.35
2017-08-20T23:28:38.108Z,16.37
2017-08-20T23:30:39.530Z,16.34
2017-08-20T23:32:40.957Z,16.31
2017-08-20T23:34:42.885Z,16.23
2017-08-20T23:36:44.322Z,16.27
2017-08-20T23:38:50.050Z,16.34
2017-08-20T23:40:51.564Z,16.34
2017-08-20T23:42:53.139Z,16.44
2017-08-20T23:44:54.823Z,16.41
2017-08-20T23:46:56.315Z,16.42
2017-08-20T23:48:57.911Z,16.45
2017-08-20T23:50:59.428Z,16.41
2017-08-20T23:53:00.996Z,16.40
2017-08-20T23:55:02.530Z,16.37
2017-08-20T23:57:52.088Z,16.44
2017-08-20T23:59:53.490Z,16.38
